createdAt,value
2019-01-25T00:00:29.306Z,65.43
2019-01-25T00:02:59.522Z,65.57
2019-01-25T00:05:29.728Z,63.83
2019-01-25T00:08:00.070Z,65.33
2019-01-25T00:10:30.317Z,65.27
2019-01-25T00:13:00.727Z,63.70
2019-01-25T00:15:31.024Z,61.33
2019-01-25T00:18:01.633Z,61.37
2019-01-25T00:20:32.645Z,62.33
2019-01-25T00:23:03.052Z,61.53
2019-01-25T00:25:33.232Z,61.33
2019-01-25T00:28:03.442Z,62.80
2019-01-25T00:30:33.731Z,58.37
2019-01-25T00:33:03.911Z,59.43
2019-01-25T00:35:34.463Z,57.53
2019-01-25T00:38:04.690Z,57.70
2019-01-25T00:40:34.956Z,57.47
2019-01-25T00:43:05.239Z,56.57
2019-01-25T00:45:36.253Z,58.00
2019-01-25T00:48:06.514Z,57.80
2019-01-25T00:50:36.845Z,55.60
2019-01-25T00:53:07.409Z,55.20
2019-01-25T00:55:38.544Z,53.80
2019-01-25T00:58:08.756Z,54.33
2019-01-25T01:00:39.159Z,54.73
2019-01-25T01:03:09.326Z,54.30
2019-01-25T01:05:39.597Z,56.47
2019-01-25T01:08:09.887Z,57.20
2019-01-25T01:10:40.063Z,56.17
2019-01-25T01:13:10.249Z,55.03
2019-01-25T01:15:40.401Z,52.03
2019-01-25T01:18:10.590Z,54.20
2019-01-25T01:20:40.756Z,52.50
2019-01-25T01:23:10.944Z,50.73
2019-01-25T01:25:41.120Z,53.00
2019-01-25T01:28:11.323Z,51.07
2019-01-25T01:30:41.482Z,53.70
2019-01-25T01:33:11.650Z,54.40
2019-01-25T01:35:41.833Z,52.00
2019-01-25T01:38:12.037Z,52.50
2019-01-25T01:40:42.217Z,54.10
2019-01-25T01:43:12.389Z,54.13
2019-01-25T01:45:42.567Z,53.97
2019-01-25T01:48:12.742Z,50.80
2019-01-25T01:50:42.923Z,53.47
2019-01-25T01:53:13.111Z,53.07
2019-01-25T01:55:43.280Z,54.13
2019-01-25T01:58:13.486Z,53.77
2019-01-25T02:00:43.643Z,53.07
2019-01-25T02:03:13.826Z,54.20
2019-01-25T02:05:43.973Z,52.93
2019-01-25T02:08:14.156Z,53.00
2019-01-25T02:10:44.312Z,52.70
2019-01-25T02:13:14.533Z,51.67
2019-01-25T02:15:44.761Z,51.77
2019-01-25T02:18:14.993Z,53.30
2019-01-25T02:20:45.237Z,50.47
2019-01-25T02:23:15.429Z,51.27
2019-01-25T02:25:45.579Z,51.33
2019-01-25T02:28:15.772Z,52.90
2019-01-25T02:30:46.026Z,54.07
2019-01-25T02:33:16.229Z,53.40
2019-01-25T02:35:46.370Z,53.03
2019-01-25T02:38:16.587Z,52.97
2019-01-25T02:40:46.745Z,52.83
2019-01-25T02:43:16.925Z,54.10
2019-01-25T02:45:47.118Z,55.33
2019-01-25T02:48:17.391Z,56.70
2019-01-25T02:50:47.545Z,54.30
2019-01-25T02:53:17.748Z,52.90
2019-01-25T02:55:47.893Z,55.97
2019-01-25T02:58:21.603Z,52.97
2019-01-25T03:00:51.820Z,53.80
2019-01-25T03:03:21.997Z,49.87
2019-01-25T03:05:52.161Z,51.33
2019-01-25T03:08:22.327Z,51.23
2019-01-25T03:10:52.474Z,52.13
2019-01-25T03:13:22.638Z,49.47
2019-01-25T03:15:52.761Z,50.70
2019-01-25T03:18:23.103Z,51.10
2019-01-25T03:20:53.237Z,48.30
2019-01-25T03:23:23.445Z,47.73
2019-01-25T03:25:53.570Z,43.93
2019-01-25T03:28:23.753Z,45.00
2019-01-25T03:30:53.913Z,46.10
2019-01-25T03:33:24.101Z,46.10
2019-01-25T03:35:54.245Z,48.47
2019-01-25T03:38:24.431Z,46.00
2019-01-25T03:40:55.362Z,47.53
2019-01-25T03:43:25.820Z,45.90
2019-01-25T03:45:56.439Z,50.70
2019-01-25T03:48:26.646Z,46.73
2019-01-25T03:50:56.784Z,46.93
2019-01-25T03:53:27.048Z,44.67
2019-01-25T03:55:57.197Z,46.17
2019-01-25T03:58:27.352Z,44.87
2019-01-25T04:00:58.672Z,43.37
2019-01-25T04:03:28.849Z,45.40
2019-01-25T04:05:59.025Z,47.83
2019-01-25T04:08:29.242Z,46.97
2019-01-25T04:11:03.843Z,44.93
2019-01-25T04:13:31.179Z,45.63
2019-01-25T04:16:01.328Z,43.17
2019-01-25T04:18:31.566Z,42.07
2019-01-25T04:21:01.721Z,41.43
2019-01-25T04:23:31.890Z,44.00
2019-01-25T04:26:02.042Z,40.90
2019-01-25T04:28:32.295Z,41.00
2019-01-25T04:31:02.423Z,38.83
2019-01-25T04:33:32.598Z,41.93
2019-01-25T04:36:02.774Z,40.03
2019-01-25T04:38:32.945Z,39.73
2019-01-25T04:41:03.124Z,40.47
2019-01-25T04:43:33.293Z,45.23
2019-01-25T04:46:03.559Z,40.30
2019-01-25T04:48:33.740Z,40.50
2019-01-25T04:51:08.720Z,42.30
2019-01-25T04:53:38.911Z,39.20
2019-01-25T04:56:09.170Z,39.83
2019-01-25T04:58:39.393Z,38.10
2019-01-25T05:01:10.849Z,37.37
2019-01-25T05:03:40.989Z,39.20
2019-01-25T05:06:14.213Z,38.93
2019-01-25T05:08:44.327Z,38.83
2019-01-25T05:11:19.990Z,39.20
2019-01-25T05:13:50.812Z,39.77
2019-01-25T05:16:20.890Z,42.47
2019-01-25T05:18:50.962Z,38.07
2019-01-25T05:21:25.366Z,40.70
2019-01-25T05:23:55.442Z,40.30
2019-01-25T05:26:25.519Z,40.20
2019-01-25T05:28:55.710Z,39.90
2019-01-25T05:31:28.443Z,41.93
2019-01-25T05:33:59.333Z,42.23
2019-01-25T05:36:29.451Z,42.17
2019-01-25T05:38:59.513Z,42.93
2019-01-25T05:41:29.628Z,42.27
2019-01-25T05:43:59.680Z,42.37
2019-01-25T05:46:29.732Z,42.63
2019-01-25T05:48:59.864Z,43.40
2019-01-25T05:51:33.738Z,39.20
2019-01-25T05:54:01.701Z,40.07
2019-01-25T05:56:31.735Z,42.07
2019-01-25T05:59:01.787Z,43.80
2019-01-25T06:01:31.911Z,42.10
2019-01-25T06:04:02.058Z,43.20
2019-01-25T06:06:32.260Z,41.80
2019-01-25T06:09:02.328Z,43.30
2019-01-25T06:11:35.863Z,44.53
2019-01-25T06:14:05.886Z,42.73
2019-01-25T06:16:37.410Z,44.37
2019-01-25T06:19:07.446Z,42.30
2019-01-25T06:21:37.496Z,43.37
2019-01-25T06:24:07.511Z,42.50
2019-01-25T06:26:39.363Z,42.50
2019-01-25T06:29:09.551Z,41.73
2019-01-25T06:31:39.644Z,40.80
2019-01-25T06:34:09.675Z,42.40
2019-01-25T06:36:39.699Z,42.13
2019-01-25T06:39:10.294Z,41.60
2019-01-25T06:41:44.184Z,41.13
2019-01-25T06:44:12.070Z,41.63
2019-01-25T06:46:42.237Z,41.97
2019-01-25T06:49:12.352Z,41.33
2019-01-25T06:51:42.382Z,41.07
2019-01-25T06:54:12.431Z,39.73
2019-01-25T06:56:42.483Z,39.83
2019-01-25T06:59:34.507Z,38.43
2019-01-25T07:02:08.557Z,44.10
2019-01-25T07:04:38.613Z,43.73
2019-01-25T07:07:17.471Z,46.97
2019-01-25T07:09:47.509Z,47.83
2019-01-25T07:12:17.528Z,46.57
2019-01-25T07:14:47.580Z,45.90
2019-01-25T07:17:19.255Z,46.70
2019-01-25T07:19:49.389Z,47.97
2019-01-25T07:22:19.416Z,47.10
2019-01-25T07:24:49.549Z,44.53
2019-01-25T07:27:19.713Z,44.93
2019-01-25T07:29:49.928Z,46.40
2019-01-25T07:32:20.101Z,46.53
2019-01-25T07:34:50.276Z,45.90
2019-01-25T07:37:20.356Z,45.70
2019-01-25T07:39:50.566Z,44.67
2019-01-25T07:42:20.962Z,48.20
2019-01-25T07:44:51.269Z,45.97
2019-01-25T07:47:21.319Z,45.37
2019-01-25T07:49:51.410Z,44.57
2019-01-25T07:52:21.467Z,44.37
2019-01-25T07:54:51.915Z,43.27
2019-01-25T07:57:22.011Z,41.73
2019-01-25T07:59:53.619Z,43.00
2019-01-25T08:02:23.715Z,43.93
2019-01-25T08:04:53.886Z,42.20
2019-01-25T08:07:23.960Z,44.13
2019-01-25T08:09:54.004Z,42.93
2019-01-25T08:12:24.116Z,42.60
2019-01-25T08:14:54.265Z,41.80
2019-01-25T08:17:24.493Z,39.73
2019-01-25T08:19:54.668Z,39.37
2019-01-25T08:22:24.705Z,38.67
2019-01-25T08:24:54.897Z,38.80
2019-01-25T08:27:24.954Z,38.70
2019-01-25T08:29:55.464Z,37.40
2019-01-25T08:32:25.494Z,36.60
2019-01-25T08:34:55.685Z,37.80
2019-01-25T08:37:25.713Z,38.20
2019-01-25T08:39:55.821Z,37.57
2019-01-25T08:42:25.851Z,39.93
2019-01-25T08:44:56.002Z,38.40
2019-01-25T08:47:26.099Z,38.07
2019-01-25T08:49:57.910Z,36.90
2019-01-25T08:52:27.943Z,37.27
2019-01-25T08:54:58.093Z,38.60
2019-01-25T08:57:28.218Z,36.00
2019-01-25T08:59:58.321Z,36.97
2019-01-25T09:02:28.436Z,35.60
2019-01-25T09:04:58.490Z,35.77
2019-01-25T09:07:28.572Z,34.87
2019-01-25T09:10:01.457Z,35.37
2019-01-25T09:12:31.799Z,35.50
2019-01-25T09:15:01.963Z,34.13
2019-01-25T09:17:32.182Z,35.83
2019-01-25T09:20:02.354Z,33.73
2019-01-25T09:22:32.379Z,33.73
2019-01-25T09:25:02.461Z,36.37
2019-01-25T09:27:32.478Z,34.30
2019-01-25T09:30:02.895Z,34.37
2019-01-25T09:32:33.043Z,33.80
2019-01-25T09:35:03.087Z,29.60
2019-01-25T09:37:33.277Z,28.47
2019-01-25T09:40:03.771Z,27.33
2019-01-25T09:42:33.815Z,27.20
2019-01-25T09:45:04.450Z,27.47
2019-01-25T09:47:36.129Z,27.43
2019-01-25T09:50:07.541Z,27.60
2019-01-25T09:52:37.546Z,27.20
2019-01-25T09:55:10.428Z,27.50
2019-01-25T09:57:40.787Z,26.87
2019-01-25T10:00:38.167Z,29.07
2019-01-25T10:03:08.357Z,26.53
2019-01-25T10:05:40.150Z,28.93
2019-01-25T10:08:10.184Z,28.03
2019-01-25T10:10:41.252Z,27.90
2019-01-25T10:13:11.267Z,30.00
2019-01-25T10:15:42.380Z,30.43
2019-01-25T10:18:12.500Z,29.90
2019-01-25T10:20:42.587Z,31.70
2019-01-25T10:23:12.681Z,29.17
2019-01-25T10:25:42.778Z,29.17
2019-01-25T10:28:12.944Z,30.80
2019-01-25T10:30:43.063Z,27.60
2019-01-25T10:33:13.186Z,30.30
2019-01-25T10:35:43.214Z,29.37
2019-01-25T10:38:13.256Z,30.87
2019-01-25T10:40:43.280Z,28.67
2019-01-25T10:43:13.290Z,31.17
2019-01-25T10:45:43.402Z,29.20
2019-01-25T10:48:13.580Z,30.37
2019-01-25T10:50:44.244Z,30.97
2019-01-25T10:53:14.287Z,30.70
2019-01-25T10:55:44.356Z,28.70
2019-01-25T10:58:14.405Z,30.50
2019-01-25T11:00:44.469Z,30.27
2019-01-25T11:03:14.949Z,30.70
2019-01-25T11:05:44.974Z,30.97
2019-01-25T11:08:15.083Z,32.73
2019-01-25T11:10:45.149Z,32.70
2019-01-25T11:13:15.188Z,33.10
2019-01-25T11:15:45.220Z,32.73
2019-01-25T11:18:15.257Z,33.23
2019-01-25T11:20:45.290Z,33.30
2019-01-25T11:23:15.319Z,32.07
2019-01-25T11:25:45.444Z,33.47
2019-01-25T11:28:15.450Z,30.87
2019-01-25T11:30:45.460Z,30.63
2019-01-25T11:33:15.655Z,31.13
2019-01-25T11:35:45.738Z,30.43
2019-01-25T11:38:16.027Z,30.33
2019-01-25T11:40:46.488Z,28.07
2019-01-25T11:43:16.504Z,28.33
2019-01-25T11:45:46.542Z,28.73
2019-01-25T11:48:16.686Z,28.50
2019-01-25T11:50:46.703Z,27.60
2019-01-25T11:53:16.766Z,27.13
2019-01-25T11:55:46.895Z,27.53
2019-01-25T11:58:17.033Z,27.67
2019-01-25T12:00:47.561Z,27.33
2019-01-25T12:03:17.595Z,27.47
2019-01-25T12:05:47.705Z,27.13
2019-01-25T12:08:20.477Z,26.23
2019-01-25T12:11:03.105Z,26.70
2019-01-25T12:13:45.365Z,28.40
2019-01-25T12:16:27.211Z,27.93
2019-01-25T12:19:09.213Z,30.30
2019-01-25T12:21:50.658Z,30.47
2019-01-25T12:24:32.722Z,30.57
2019-01-25T12:27:14.679Z,30.77
2019-01-25T12:29:57.012Z,31.00
2019-01-25T12:32:39.842Z,31.23
2019-01-25T12:35:21.832Z,30.80
2019-01-25T12:38:04.122Z,29.13
2019-01-25T12:40:34.754Z,29.53
2019-01-25T12:43:05.264Z,30.60
2019-01-25T12:45:35.302Z,29.33
2019-01-25T12:48:05.496Z,29.87
2019-01-25T12:50:38.820Z,31.27
2019-01-25T12:53:09.176Z,29.33
2019-01-25T12:55:39.297Z,30.83
2019-01-25T12:58:09.322Z,29.97
2019-01-25T13:00:41.590Z,30.87
2019-01-25T13:03:12.160Z,31.37
2019-01-25T13:05:43.302Z,30.93
2019-01-25T13:08:15.859Z,30.77
2019-01-25T13:10:47.133Z,31.63
2019-01-25T13:13:17.299Z,30.53
2019-01-25T13:15:47.486Z,31.77
2019-01-25T13:18:19.191Z,31.63
2019-01-25T13:20:49.274Z,30.43
2019-01-25T13:23:19.329Z,28.67
2019-01-25T13:25:49.410Z,28.67
2019-01-25T13:28:19.460Z,29.90
2019-01-25T13:30:49.744Z,30.67
2019-01-25T13:33:19.855Z,30.27
2019-01-25T13:35:50.001Z,31.23
2019-01-25T13:38:20.258Z,30.40
2019-01-25T13:40:50.838Z,29.83
2019-01-25T13:43:20.913Z,31.87
2019-01-25T13:45:50.962Z,29.93
2019-01-25T13:48:20.974Z,31.33
2019-01-25T13:50:51.351Z,31.50
2019-01-25T13:53:21.422Z,31.07
2019-01-25T13:55:51.591Z,30.27
2019-01-25T13:58:21.761Z,31.10
2019-01-25T14:00:51.988Z,31.03
2019-01-25T14:03:22.154Z,30.97
2019-01-25T14:05:52.317Z,30.13
2019-01-25T14:08:22.591Z,30.50
2019-01-25T14:10:52.815Z,30.33
2019-01-25T14:13:23.298Z,29.87
2019-01-25T14:15:53.359Z,29.60
2019-01-25T14:18:23.468Z,29.90
2019-01-25T14:20:53.621Z,31.33
2019-01-25T14:23:23.779Z,29.80
2019-01-25T14:25:53.956Z,31.50
2019-01-25T14:28:27.024Z,29.90
2019-01-25T14:30:57.074Z,29.53
2019-01-25T14:33:27.111Z,29.77
2019-01-25T14:35:57.139Z,29.83
2019-01-25T14:38:27.192Z,29.77
2019-01-25T14:40:57.237Z,31.03
2019-01-25T14:43:27.292Z,30.40
2019-01-25T14:45:57.416Z,29.93
2019-01-25T14:48:27.440Z,30.10
2019-01-25T14:50:57.584Z,28.97
2019-01-25T14:53:28.087Z,29.30
2019-01-25T14:55:58.246Z,29.30
2019-01-25T14:58:28.331Z,28.90
2019-01-25T15:00:58.372Z,27.50
2019-01-25T15:03:28.452Z,29.57
2019-01-25T15:05:58.547Z,27.90
2019-01-25T15:08:28.626Z,27.17
2019-01-25T15:10:58.709Z,27.10
2019-01-25T15:13:28.747Z,26.63
2019-01-25T15:15:58.908Z,27.13
2019-01-25T15:18:30.455Z,27.13
2019-01-25T15:21:00.564Z,27.50
2019-01-25T15:23:30.646Z,26.93
2019-01-25T15:26:00.789Z,26.57
2019-01-25T15:28:31.286Z,27.90
2019-01-25T15:31:01.331Z,26.80
2019-01-25T15:33:31.460Z,27.63
2019-01-25T15:36:01.670Z,27.50
2019-01-25T15:38:31.910Z,26.30
2019-01-25T15:41:04.055Z,27.87
2019-01-25T15:43:34.461Z,27.30
2019-01-25T15:46:04.617Z,29.07
2019-01-25T15:48:34.650Z,26.63
2019-01-25T15:51:04.835Z,28.27
2019-01-25T15:53:34.867Z,29.13
2019-01-25T15:56:05.415Z,27.13
2019-01-25T15:58:35.449Z,27.30
2019-01-25T16:01:05.774Z,27.40
2019-01-25T16:03:35.818Z,27.63
2019-01-25T16:06:06.074Z,27.03
2019-01-25T16:08:36.213Z,27.57
2019-01-25T16:11:06.340Z,27.47
2019-01-25T16:13:36.388Z,27.20
2019-01-25T16:16:06.514Z,26.10
2019-01-25T16:18:36.523Z,26.77
2019-01-25T16:21:06.617Z,27.90
2019-01-25T16:23:36.650Z,25.27
2019-01-25T16:26:06.871Z,25.07
2019-01-25T16:28:36.887Z,24.33
2019-01-25T16:31:07.090Z,24.90
2019-01-25T16:33:37.303Z,24.30
2019-01-25T16:36:07.349Z,23.23
2019-01-25T16:38:37.560Z,23.33
2019-01-25T16:41:07.633Z,24.40
2019-01-25T16:43:37.836Z,23.07
2019-01-25T16:46:07.929Z,23.27
2019-01-25T16:48:37.966Z,23.03
2019-01-25T16:51:08.118Z,23.17
2019-01-25T16:53:38.160Z,22.60
2019-01-25T16:56:08.234Z,22.53
2019-01-25T16:58:38.439Z,23.10
2019-01-25T17:01:08.571Z,23.80
2019-01-25T17:03:38.689Z,22.70
2019-01-25T17:06:08.831Z,23.10
2019-01-25T17:08:38.937Z,23.30
2019-01-25T17:11:09.077Z,21.90
2019-01-25T17:13:39.212Z,21.20
2019-01-25T17:16:09.480Z,20.83
2019-01-25T17:18:39.741Z,22.33
2019-01-25T17:21:09.815Z,22.33
2019-01-25T17:23:39.970Z,22.07
2019-01-25T17:26:10.054Z,21.27
2019-01-25T17:28:40.110Z,22.67
2019-01-25T17:31:10.190Z,20.20
2019-01-25T17:33:40.209Z,19.87
2019-01-25T17:36:10.355Z,20.70
2019-01-25T17:38:40.455Z,20.37
2019-01-25T17:41:10.627Z,21.10
2019-01-25T17:43:40.980Z,22.00
2019-01-25T17:46:11.028Z,21.20
2019-01-25T17:48:41.150Z,21.57
2019-01-25T17:51:11.353Z,20.73
2019-01-25T17:53:41.488Z,19.97
2019-01-25T17:56:11.756Z,20.37
2019-01-25T17:58:41.831Z,21.63
2019-01-25T18:01:12.040Z,19.87
2019-01-25T18:03:42.261Z,20.40
2019-01-25T18:06:12.543Z,20.23
2019-01-25T18:08:42.603Z,20.00
2019-01-25T18:11:12.811Z,20.13
2019-01-25T18:13:43.103Z,21.03
2019-01-25T18:16:13.263Z,20.10
2019-01-25T18:18:43.403Z,21.93
2019-01-25T18:21:16.294Z,21.97
2019-01-25T18:23:46.408Z,22.70
2019-01-25T18:26:21.821Z,22.53
2019-01-25T18:29:01.439Z,22.33
2019-01-25T18:31:32.459Z,21.77
2019-01-25T18:34:02.536Z,23.90
2019-01-25T18:36:32.582Z,25.10
2019-01-25T18:39:04.823Z,23.63
2019-01-25T18:41:35.432Z,23.33
2019-01-25T18:44:06.704Z,24.33
2019-01-25T18:46:36.744Z,24.17
2019-01-25T18:49:06.861Z,26.67
2019-01-25T18:51:36.995Z,24.63
2019-01-25T18:54:08.095Z,24.53
2019-01-25T18:56:38.309Z,26.47
2019-01-25T18:59:08.334Z,27.80
2019-01-25T19:01:38.457Z,26.10
2019-01-25T19:04:08.627Z,27.00
2019-01-25T19:06:38.753Z,28.20
2019-01-25T19:09:10.099Z,27.83
2019-01-25T19:11:40.206Z,27.20
2019-01-25T19:14:10.319Z,27.33
2019-01-25T19:16:40.447Z,26.63
2019-01-25T19:19:10.582Z,28.33
2019-01-25T19:21:40.817Z,26.53
2019-01-25T19:24:11.174Z,30.30
2019-01-25T19:26:41.249Z,27.27
2019-01-25T19:29:11.397Z,28.17
2019-01-25T19:31:41.671Z,27.13
2019-01-25T19:34:11.827Z,28.53
2019-01-25T19:36:43.587Z,27.37
2019-01-25T19:39:15.294Z,26.20
2019-01-25T19:41:45.547Z,29.23
2019-01-25T19:44:15.560Z,27.33
2019-01-25T19:46:45.755Z,28.30
2019-01-25T19:49:15.932Z,28.20
2019-01-25T19:51:46.116Z,26.00
2019-01-25T19:54:16.380Z,28.83
2019-01-25T19:56:47.221Z,27.47
2019-01-25T19:59:17.473Z,29.30
2019-01-25T20:01:47.568Z,27.70
2019-01-25T20:04:19.251Z,28.27
2019-01-25T20:06:49.296Z,27.33
2019-01-25T20:09:19.433Z,28.70
2019-01-25T20:11:49.722Z,27.00
2019-01-25T20:14:19.952Z,28.70
2019-01-25T20:16:50.656Z,26.60
2019-01-25T20:19:20.818Z,26.63
2019-01-25T20:21:50.955Z,27.33
2019-01-25T20:24:21.035Z,27.30
2019-01-25T20:26:51.181Z,28.10
2019-01-25T20:29:21.225Z,28.20
2019-01-25T20:31:51.283Z,26.40
2019-01-25T20:34:24.420Z,28.57
2019-01-25T20:36:54.689Z,27.80
2019-01-25T20:39:24.779Z,27.93
2019-01-25T20:41:54.977Z,30.43
2019-01-25T20:44:25.196Z,30.23
2019-01-25T20:46:55.416Z,27.63
2019-01-25T20:49:25.547Z,28.63
2019-01-25T20:51:55.950Z,29.93
2019-01-25T20:54:26.074Z,26.67
2019-01-25T20:56:56.183Z,29.10
2019-01-25T20:59:26.334Z,27.77
2019-01-25T21:01:56.567Z,30.57
2019-01-25T21:04:26.760Z,29.40
2019-01-25T21:06:56.939Z,28.93
2019-01-25T21:09:27.415Z,30.73
2019-01-25T21:11:57.569Z,31.30
2019-01-25T21:14:27.619Z,30.47
2019-01-25T21:16:57.806Z,30.17
2019-01-25T21:19:27.974Z,29.77
2019-01-25T21:21:58.142Z,30.43
2019-01-25T21:24:28.357Z,29.83
2019-01-25T21:26:58.630Z,30.50
2019-01-25T21:29:28.727Z,32.63
2019-01-25T21:31:58.792Z,34.97
2019-01-25T21:34:28.831Z,36.40
2019-01-25T21:36:58.952Z,33.07
2019-01-25T21:39:28.984Z,33.27
2019-01-25T21:41:59.152Z,32.67
2019-01-25T21:44:29.203Z,35.47
2019-01-25T21:46:59.278Z,35.40
2019-01-25T21:49:29.369Z,35.10
2019-01-25T21:51:59.649Z,33.30
2019-01-25T21:54:29.758Z,34.17
2019-01-25T21:57:00.019Z,35.40
2019-01-25T21:59:31.174Z,32.77
2019-01-25T22:02:01.449Z,31.93
2019-01-25T22:04:32.481Z,32.53
2019-01-25T22:07:02.667Z,34.93
2019-01-25T22:09:32.821Z,33.70
2019-01-25T22:12:03.099Z,34.47
2019-01-25T22:14:33.276Z,34.23
2019-01-25T22:17:03.751Z,35.73
2019-01-25T22:19:33.911Z,33.50
2019-01-25T22:22:04.604Z,35.60
2019-01-25T22:24:34.639Z,35.63
2019-01-25T22:27:04.850Z,32.70
2019-01-25T22:29:34.986Z,33.27
2019-01-25T22:32:05.160Z,34.80
2019-01-25T22:34:35.197Z,35.00
2019-01-25T22:37:05.234Z,33.27
2019-01-25T22:39:35.439Z,34.37
2019-01-25T22:42:05.559Z,34.87
2019-01-25T22:44:35.678Z,32.97
2019-01-25T22:47:05.750Z,34.50
2019-01-25T22:49:35.800Z,34.23
2019-01-25T22:52:05.933Z,34.80
2019-01-25T22:54:37.654Z,33.93
2019-01-25T22:57:07.703Z,35.43
2019-01-25T22:59:37.964Z,37.60
2019-01-25T23:02:08.261Z,34.90
2019-01-25T23:04:57.769Z,35.60
2019-01-25T23:07:29.624Z,35.43
2019-01-25T23:10:02.059Z,33.97
2019-01-25T23:12:32.303Z,36.37
2019-01-25T23:15:02.639Z,35.33
2019-01-25T23:17:32.857Z,34.53
2019-01-25T23:20:02.952Z,35.40
2019-01-25T23:22:33.071Z,36.17
2019-01-25T23:25:03.231Z,36.07
2019-01-25T23:27:33.684Z,35.07
2019-01-25T23:30:04.030Z,37.00
2019-01-25T23:32:35.975Z,37.20
2019-01-25T23:35:06.097Z,37.17
2019-01-25T23:37:36.229Z,36.40
2019-01-25T23:40:09.111Z,34.47
2019-01-25T23:42:39.327Z,34.30
2019-01-25T23:45:11.391Z,37.20
2019-01-25T23:47:41.434Z,36.73
2019-01-25T23:50:12.612Z,37.60
2019-01-25T23:52:42.770Z,36.87
2019-01-25T23:55:12.988Z,36.93
2019-01-25T23:57:43.155Z,33.30
